Time;durP1;ratioP1;P1;durP2;ratioP2;P2;SDS_P1;SDS_P2;PMS_P1;PMS_P2;Temp;Humidity;BMP_temperature;BMP_pressure;BME280_temperature;BME280_humidity;BME280_pressure;Samples;Min_cycle;Max_cycle;Signal;HPM_P1;HPM_P2
2023/12/06 00:00:17;;;;;;;15.20;10.10;;;;;;;;;;6133030;23;20751;-87
2023/12/06 00:02:54;;;;;;;12.83;8.60;;;;;;;;;;6155874;23;20433;-86
2023/12/06 00:05:30;;;;;;;16.97;10.33;;;;;;;;;;6131159;23;20470;-87
2023/12/06 00:08:23;;;;;;;14.00;9.47;;;;;;;;;;6125109;23;20848;-88
2023/12/06 00:11:02;;;;;;;16.70;10.00;;;;;;;;;;6128468;23;20434;-87
2023/12/06 00:13:56;;;;;;;15.63;9.63;;;;;;;;;;6125181;23;20402;-86
2023/12/06 00:16:28;;;;;;;16.80;10.13;;;;;;;;;;6123295;23;20419;-89
2023/12/06 00:19:12;;;;;;;17.73;10.90;;;;;;;;;;6185337;23;20504;-86
2023/12/06 00:21:42;;;;;;;15.27;9.60;;;;;;;;;;6163573;23;20830;-86
2023/12/06 00:24:26;;;;;;;13.00;8.97;;;;;;;;;;6182734;23;20460;-86
2023/12/06 00:27:00;;;;;;;15.37;8.90;;;;;;;;;;6184896;23;20416;-85
2023/12/06 00:29:30;;;;;;;12.80;9.00;;;;;;;;;;6184061;23;20406;-88
2023/12/06 00:32:04;;;;;;;13.43;9.37;;;;;;;;;;6183925;23;20424;-84
2023/12/06 00:34:58;;;;;;;13.10;9.23;;;;;;;;;;6183500;23;20364;-86
2023/12/06 00:37:28;;;;;;;11.57;8.17;;;;;;;;;;6186526;23;20410;-85
2023/12/06 00:40:03;;;;;;;12.97;8.63;;;;;;;;;;6191536;23;20524;-86
2023/12/06 00:42:47;;;;;;;14.20;9.50;;;;;;;;;;6193458;23;20432;-85
2023/12/06 00:45:31;;;;;;;12.80;9.63;;;;;;;;;;6192445;23;20570;-87
2023/12/06 00:48:10;;;;;;;14.23;9.17;;;;;;;;;;6188131;23;20412;-86
2023/12/06 00:50:43;;;;;;;13.57;10.43;;;;;;;;;;6185393;23;20428;-87
2023/12/06 00:53:22;;;;;;;15.13;9.97;;;;;;;;;;6165022;23;20406;-87
2023/12/06 00:55:56;;;;;;;13.50;9.07;;;;;;;;;;6184634;23;20410;-86
2023/12/06 00:58:38;;;;;;;12.07;8.93;;;;;;;;;;6184731;23;20402;-86
2023/12/06 01:01:15;;;;;;;14.50;8.77;;;;;;;;;;6197328;23;20440;-86
2023/12/06 01:03:50;;;;;;;13.63;9.53;;;;;;;;;;6201370;23;20488;-87
2023/12/06 01:06:31;;;;;;;14.40;9.60;;;;;;;;;;6197679;23;20441;-85
2023/12/06 01:09:17;;;;;;;17.80;10.97;;;;;;;;;;6192128;23;20406;-87
2023/12/06 01:11:56;;;;;;;15.27;10.47;;;;;;;;;;6176342;23;20406;-85
2023/12/06 01:14:25;;;;;;;14.40;8.67;;;;;;;;;;6154168;23;20414;-87
2023/12/06 01:16:59;;;;;;;12.50;8.90;;;;;;;;;;6147210;23;20403;-87
2023/12/06 01:22:25;;;;;;;13.57;9.57;;;;;;;;;;6165806;23;20411;-86
2023/12/06 01:25:01;;;;;;;15.43;9.30;;;;;;;;;;6134566;23;20426;-88
2023/12/06 01:27:36;;;;;;;15.23;10.70;;;;;;;;;;6156299;23;20407;-86
2023/12/06 01:30:07;;;;;;;14.10;9.27;;;;;;;;;;6129413;23;20470;-89
2023/12/06 01:32:41;;;;;;;14.83;10.03;;;;;;;;;;6129183;23;20403;-87
2023/12/06 01:35:27;;;;;;;17.70;10.90;;;;;;;;;;6149849;23;20415;-86
2023/12/06 01:38:13;;;;;;;18.10;11.30;;;;;;;;;;6127119;23;20731;-88
2023/12/06 01:40:54;;;;;;;17.50;11.23;;;;;;;;;;6127575;23;20438;-84
2023/12/06 01:43:27;;;;;;;15.70;10.83;;;;;;;;;;6124745;23;20482;-86
2023/12/06 01:45:58;;;;;;;18.93;11.73;;;;;;;;;;6127917;23;20447;-86
2023/12/06 01:48:37;;;;;;;17.07;11.70;;;;;;;;;;6127312;23;20406;-86
2023/12/06 01:51:08;;;;;;;20.20;11.70;;;;;;;;;;6126062;23;20442;-86
2023/12/06 01:53:44;;;;;;;20.57;12.60;;;;;;;;;;6128047;23;20420;-87
2023/12/06 01:56:18;;;;;;;24.83;15.10;;;;;;;;;;6128349;23;20429;-88
2023/12/06 01:58:59;;;;;;;25.13;15.37;;;;;;;;;;6128351;23;20469;-85
2023/12/06 02:01:44;;;;;;;23.40;14.43;;;;;;;;;;6128099;23;20469;-87
2023/12/06 02:04:42;;;;;;;21.73;13.87;;;;;;;;;;6126705;23;20419;-86
2023/12/06 02:07:10;;;;;;;22.70;13.27;;;;;;;;;;6113993;23;20419;-86
2023/12/06 02:09:59;;;;;;;20.83;12.23;;;;;;;;;;6135716;23;20419;-87
2023/12/06 02:12:32;;;;;;;24.17;13.33;;;;;;;;;;6125315;23;20394;-86
2023/12/06 02:15:14;;;;;;;23.40;14.40;;;;;;;;;;6152640;23;20430;-87
2023/12/06 02:18:03;;;;;;;27.57;16.63;;;;;;;;;;6152788;23;20411;-87
2023/12/06 02:20:42;;;;;;;26.30;15.40;;;;;;;;;;6157166;23;20943;-88
2023/12/06 02:23:18;;;;;;;26.37;17.43;;;;;;;;;;6157979;23;20927;-89
2023/12/06 02:25:52;;;;;;;27.20;17.30;;;;;;;;;;6156270;23;20442;-87
2023/12/06 02:28:25;;;;;;;29.90;16.20;;;;;;;;;;6158567;23;20460;-85
2023/12/06 02:30:55;;;;;;;27.70;16.53;;;;;;;;;;6161053;23;20441;-85
2023/12/06 02:33:37;;;;;;;30.07;17.27;;;;;;;;;;6157515;23;20513;-84
2023/12/06 02:36:15;;;;;;;30.33;15.83;;;;;;;;;;6156800;23;20421;-88
2023/12/06 02:39:09;;;;;;;33.87;18.90;;;;;;;;;;6156425;23;20418;-86
2023/12/06 02:41:50;;;;;;;29.73;17.00;;;;;;;;;;6158410;23;20438;-89
2023/12/06 02:44:34;;;;;;;35.40;20.80;;;;;;;;;;6160027;23;20413;-87
2023/12/06 02:47:02;;;;;;;34.30;19.17;;;;;;;;;;6157173;23;20473;-89
2023/12/06 02:49:34;;;;;;;40.27;20.70;;;;;;;;;;6155671;23;20453;-86
2023/12/06 02:52:07;;;;;;;39.63;21.90;;;;;;;;;;6157034;23;20485;-86
2023/12/06 02:54:52;;;;;;;35.27;20.50;;;;;;;;;;6163666;23;20445;-86
2023/12/06 02:57:50;;;;;;;36.87;19.83;;;;;;;;;;6163072;23;20414;-88
2023/12/06 03:00:24;;;;;;;35.07;20.00;;;;;;;;;;6176617;23;20418;-86
2023/12/06 03:02:57;;;;;;;40.80;22.70;;;;;;;;;;6160736;23;20414;-88
2023/12/06 03:05:28;;;;;;;37.80;19.90;;;;;;;;;;6163109;23;20446;-87
2023/12/06 03:08:04;;;;;;;38.43;20.03;;;;;;;;;;6165590;23;20428;-85
2023/12/06 03:10:50;;;;;;;44.37;21.83;;;;;;;;;;6172226;23;20456;-88
2023/12/06 03:13:24;;;;;;;41.87;21.50;;;;;;;;;;6177017;23;20425;-86
2023/12/06 03:15:51;;;;;;;40.80;20.87;;;;;;;;;;6152464;23;20438;-88
2023/12/06 03:18:25;;;;;;;38.37;20.30;;;;;;;;;;6152582;23;20414;-86
2023/12/06 03:20:58;;;;;;;32.50;18.17;;;;;;;;;;6151116;23;20525;-84
2023/12/06 03:23:39;;;;;;;35.90;20.90;;;;;;;;;;6177333;23;20456;-88
2023/12/06 03:26:16;;;;;;;33.90;19.50;;;;;;;;;;6152165;23;20540;-86
2023/12/06 03:28:47;;;;;;;34.63;19.37;;;;;;;;;;6175563;23;21210;-87
2023/12/06 03:31:22;;;;;;;34.80;18.97;;;;;;;;;;6150668;23;20565;-87
2023/12/06 03:33:59;;;;;;;32.33;19.87;;;;;;;;;;6150113;23;20410;-85
2023/12/06 03:36:32;;;;;;;31.53;19.57;;;;;;;;;;6150988;23;20465;-88
2023/12/06 03:39:01;;;;;;;32.40;18.30;;;;;;;;;;6150225;23;20410;-88
2023/12/06 03:41:32;;;;;;;29.57;19.17;;;;;;;;;;6152603;23;20509;-87
2023/12/06 03:44:13;;;;;;;31.00;18.73;;;;;;;;;;6154904;23;20919;-86
2023/12/06 03:46:42;;;;;;;32.80;18.37;;;;;;;;;;6154114;23;20449;-86
2023/12/06 03:49:26;;;;;;;29.53;18.90;;;;;;;;;;6153200;23;20402;-87
2023/12/06 03:52:02;;;;;;;30.10;18.77;;;;;;;;;;6155785;23;20406;-88
2023/12/06 03:54:37;;;;;;;32.60;19.10;;;;;;;;;;6158098;23;20414;-86
2023/12/06 03:57:07;;;;;;;29.80;19.20;;;;;;;;;;6153804;23;20422;-86
2023/12/06 03:59:44;;;;;;;31.07;18.10;;;;;;;;;;6152966;23;20496;-88
2023/12/06 04:02:20;;;;;;;26.87;17.07;;;;;;;;;;6150269;23;20425;-87
2023/12/06 04:04:53;;;;;;;33.77;18.23;;;;;;;;;;6155056;23;20452;-87
2023/12/06 04:07:21;;;;;;;26.87;18.80;;;;;;;;;;6155511;23;20446;-87
2023/12/06 04:09:52;;;;;;;28.50;18.97;;;;;;;;;;6182705;23;20488;-87
2023/12/06 04:12:31;;;;;;;26.70;17.10;;;;;;;;;;6168746;23;20424;-86
2023/12/06 04:15:06;;;;;;;26.20;16.70;;;;;;;;;;6199972;23;20425;-88
2023/12/06 04:17:49;;;;;;;21.23;15.40;;;;;;;;;;6171431;23;20428;-87
2023/12/06 04:20:19;;;;;;;30.50;16.50;;;;;;;;;;6173100;23;20418;-85
2023/12/06 04:22:53;;;;;;;26.00;16.50;;;;;;;;;;6174766;23;20565;-88
2023/12/06 04:25:30;;;;;;;25.87;16.90;;;;;;;;;;6176027;23;20488;-85
2023/12/06 04:28:08;;;;;;;22.70;15.67;;;;;;;;;;6156352;23;20410;-86
2023/12/06 04:30:57;;;;;;;28.20;15.77;;;;;;;;;;6158500;23;20755;-87
2023/12/06 04:33:30;;;;;;;27.73;16.40;;;;;;;;;;6178301;23;20406;-87
2023/12/06 04:36:04;;;;;;;25.13;16.90;;;;;;;;;;6180353;23;20440;-88
2023/12/06 04:38:35;;;;;;;24.63;16.70;;;;;;;;;;6179318;23;20410;-87
2023/12/06 04:41:19;;;;;;;24.97;16.33;;;;;;;;;;6182760;23;20414;-89
2023/12/06 04:43:49;;;;;;;26.40;17.20;;;;;;;;;;6179121;23;20405;-88
2023/12/06 04:46:29;;;;;;;28.57;18.10;;;;;;;;;;6177122;23;20489;-87
2023/12/06 04:48:56;;;;;;;28.70;18.23;;;;;;;;;;6201220;23;20398;-88
2023/12/06 04:51:44;;;;;;;34.17;19.77;;;;;;;;;;6167665;23;20525;-87
2023/12/06 04:57:12;;;;;;;28.90;18.27;;;;;;;;;;6171221;23;20510;-88
2023/12/06 04:59:56;;;;;;;28.90;18.20;;;;;;;;;;6161127;23;20438;-87
2023/12/06 05:02:24;;;;;;;29.23;17.40;;;;;;;;;;6159329;23;20426;-87
2023/12/06 05:04:58;;;;;;;26.80;16.67;;;;;;;;;;6161290;23;20426;-87
2023/12/06 05:07:27;;;;;;;30.10;16.70;;;;;;;;;;6156977;23;20615;-88
2023/12/06 05:10:10;;;;;;;29.13;18.27;;;;;;;;;;6185347;23;20434;-85
2023/12/06 05:12:47;;;;;;;30.83;17.90;;;;;;;;;;6159726;23;20516;-86
2023/12/06 05:15:32;;;;;;;37.43;18.63;;;;;;;;;;6159420;23;20441;-87
2023/12/06 05:18:02;;;;;;;31.10;19.00;;;;;;;;;;6173853;23;20477;-85
2023/12/06 05:20:46;;;;;;;31.27;18.30;;;;;;;;;;6171916;23;20449;-85
2023/12/06 05:23:38;;;;;;;30.80;16.67;;;;;;;;;;6175382;23;20397;-86
2023/12/06 05:26:19;;;;;;;31.57;19.47;;;;;;;;;;6171554;23;20441;-86
2023/12/06 05:28:58;;;;;;;29.07;18.20;;;;;;;;;;6171416;23;20382;-88
2023/12/06 05:31:39;;;;;;;32.10;18.70;;;;;;;;;;6173520;23;20434;-87
2023/12/06 05:34:25;;;;;;;28.47;17.93;;;;;;;;;;6171989;23;20493;-86
2023/12/06 05:37:04;;;;;;;32.10;19.40;;;;;;;;;;6171130;23;20407;-85
2023/12/06 05:39:41;;;;;;;29.97;18.47;;;;;;;;;;6171841;23;20416;-85
2023/12/06 05:42:10;;;;;;;35.20;18.33;;;;;;;;;;6169004;23;20425;-87
2023/12/06 05:44:44;;;;;;;31.50;18.57;;;;;;;;;;6162653;23;20437;-88
2023/12/06 05:47:14;;;;;;;30.93;18.10;;;;;;;;;;6190078;23;20442;-87
2023/12/06 05:49:57;;;;;;;28.27;17.53;;;;;;;;;;6172262;23;20421;-87
2023/12/06 05:55:58;;;;;;;25.00;16.67;;;;;;;;;;6197651;23;20450;-87
2023/12/06 05:58:42;;;;;;;26.30;16.53;;;;;;;;;;6175528;23;20438;-88
2023/12/06 06:01:38;;;;;;;26.30;17.87;;;;;;;;;;6173040;23;20434;-86
2023/12/06 06:04:24;;;;;;;28.73;17.27;;;;;;;;;;6179058;23;20406;-88
2023/12/06 06:10:24;;;;;;;23.97;17.27;;;;;;;;;;6165446;23;20442;-87
2023/12/06 06:13:09;;;;;;;24.60;16.40;;;;;;;;;;6165490;23;20417;-88
2023/12/06 06:15:50;;;;;;;26.40;17.20;;;;;;;;;;6174777;23;20449;-87
2023/12/06 06:18:24;;;;;;;25.33;15.97;;;;;;;;;;6169307;23;20432;-86
2023/12/06 06:21:05;;;;;;;25.07;16.47;;;;;;;;;;6167604;23;20437;-87
2023/12/06 06:23:43;;;;;;;26.87;16.77;;;;;;;;;;6165172;23;20468;-86
2023/12/06 06:26:27;;;;;;;23.90;16.00;;;;;;;;;;6166133;23;20438;-88
2023/12/06 06:29:11;;;;;;;29.50;18.23;;;;;;;;;;6167284;23;20402;-88
2023/12/06 06:31:40;;;;;;;23.70;16.93;;;;;;;;;;6149811;23;20471;-88
2023/12/06 06:34:16;;;;;;;26.37;16.73;;;;;;;;;;6152959;23;20744;-84
2023/12/06 06:36:46;;;;;;;27.97;17.37;;;;;;;;;;6153029;23;20420;-85
2023/12/06 06:39:21;;;;;;;25.37;16.13;;;;;;;;;;6151083;23;21052;-87
2023/12/06 06:42:16;;;;;;;24.00;16.37;;;;;;;;;;6148476;23;20438;-87
2023/12/06 06:44:52;;;;;;;23.00;16.97;;;;;;;;;;6149963;23;20482;-87
2023/12/06 06:47:32;;;;;;;21.30;16.10;;;;;;;;;;6155053;23;20424;-87
2023/12/06 06:50:03;;;;;;;24.87;17.13;;;;;;;;;;6159323;23;20415;-87
2023/12/06 06:53:01;;;;;;;23.67;16.77;;;;;;;;;;6153611;23;20454;-87
2023/12/06 06:55:46;;;;;;;22.60;15.93;;;;;;;;;;6155635;23;20435;-88
2023/12/06 06:58:27;;;;;;;24.17;17.80;;;;;;;;;;6153505;23;20410;-86
2023/12/06 07:01:00;;;;;;;25.60;16.50;;;;;;;;;;6150993;23;20435;-87
2023/12/06 07:03:41;;;;;;;32.83;19.97;;;;;;;;;;6149380;23;20423;-86
2023/12/06 07:06:25;;;;;;;26.13;17.13;;;;;;;;;;6126781;23;20465;-86
2023/12/06 07:08:56;;;;;;;23.47;17.00;;;;;;;;;;6145337;23;20435;-86
2023/12/06 07:11:25;;;;;;;26.60;19.27;;;;;;;;;;6144358;23;20464;-87
2023/12/06 07:13:55;;;;;;;24.53;16.83;;;;;;;;;;6146900;23;20407;-86
2023/12/06 07:16:30;;;;;;;25.50;17.23;;;;;;;;;;6146525;23;20429;-88
2023/12/06 07:19:32;;;;;;;26.10;16.73;;;;;;;;;;6147761;23;20415;-85
2023/12/06 07:22:06;;;;;;;25.33;17.70;;;;;;;;;;6163193;23;20421;-86
2023/12/06 07:24:39;;;;;;;27.93;18.13;;;;;;;;;;6160807;23;20399;-88
2023/12/06 07:27:20;;;;;;;24.27;17.40;;;;;;;;;;6153286;23;20462;-88
2023/12/06 07:29:54;;;;;;;24.67;17.00;;;;;;;;;;6147629;23;20431;-86
2023/12/06 07:32:34;;;;;;;20.40;16.10;;;;;;;;;;6152870;23;21241;-87
2023/12/06 07:35:15;;;;;;;24.63;16.70;;;;;;;;;;6152867;23;20441;-87
2023/12/06 07:37:59;;;;;;;24.70;16.80;;;;;;;;;;6152103;23;20833;-87
2023/12/06 07:40:40;;;;;;;22.33;16.27;;;;;;;;;;6150381;23;20509;-87
2023/12/06 07:43:33;;;;;;;21.00;14.77;;;;;;;;;;6149848;23;20442;-88
2023/12/06 07:46:30;;;;;;;23.80;16.73;;;;;;;;;;6147975;23;20439;-86
2023/12/06 07:49:23;;;;;;;21.53;17.17;;;;;;;;;;6134589;23;20451;-87
2023/12/06 07:52:18;;;;;;;23.87;16.07;;;;;;;;;;6126071;23;20398;-87
2023/12/06 07:54:53;;;;;;;24.57;15.60;;;;;;;;;;6150800;23;20413;-88
2023/12/06 07:57:44;;;;;;;27.27;17.30;;;;;;;;;;6152815;23;20424;-88
2023/12/06 08:00:14;;;;;;;21.13;16.40;;;;;;;;;;6153083;23;20434;-88
2023/12/06 08:02:58;;;;;;;22.50;15.33;;;;;;;;;;6163181;23;20412;-87
2023/12/06 08:05:42;;;;;;;21.83;15.43;;;;;;;;;;6158116;23;21035;-87
2023/12/06 08:08:20;;;;;;;23.40;16.07;;;;;;;;;;6124363;23;20455;-86
2023/12/06 08:10:49;;;;;;;20.07;15.77;;;;;;;;;;6148451;23;20430;-86
2023/12/06 08:13:25;;;;;;;21.40;15.73;;;;;;;;;;6149556;23;20422;-86
2023/12/06 08:16:02;;;;;;;19.33;15.03;;;;;;;;;;6149522;23;20486;-87
2023/12/06 08:18:50;;;;;;;19.13;15.33;;;;;;;;;;6152007;23;20435;-87
2023/12/06 08:21:39;;;;;;;20.07;14.90;;;;;;;;;;6151966;23;20935;-90
2023/12/06 08:24:16;;;;;;;19.93;14.83;;;;;;;;;;6150449;23;20410;-87
2023/12/06 08:27:00;;;;;;;19.07;15.30;;;;;;;;;;6151011;23;20952;-88
2023/12/06 08:29:33;;;;;;;23.20;15.10;;;;;;;;;;6151698;23;20399;-87
2023/12/06 08:32:09;;;;;;;21.20;15.20;;;;;;;;;;6152839;23;20485;-88
2023/12/06 08:35:02;;;;;;;22.30;15.13;;;;;;;;;;6152958;23;20406;-89
2023/12/06 08:37:42;;;;;;;22.07;15.47;;;;;;;;;;6150945;23;20478;-88
2023/12/06 08:40:26;;;;;;;24.50;16.47;;;;;;;;;;6133606;23;20427;-87
2023/12/06 08:43:03;;;;;;;20.60;15.40;;;;;;;;;;6151757;23;20422;-88
2023/12/06 08:45:45;;;;;;;21.27;15.53;;;;;;;;;;6154897;23;20418;-89
2023/12/06 08:48:22;;;;;;;21.73;15.87;;;;;;;;;;6153298;23;20454;-87
2023/12/06 08:50:53;;;;;;;20.27;14.77;;;;;;;;;;6151673;23;20437;-86
2023/12/06 08:53:37;;;;;;;23.70;17.17;;;;;;;;;;6153874;23;20418;-88
2023/12/06 08:56:13;;;;;;;22.60;16.80;;;;;;;;;;6161754;23;20474;-86
2023/12/06 08:58:46;;;;;;;19.17;14.27;;;;;;;;;;6159144;23;20990;-89
2023/12/06 09:01:17;;;;;;;22.70;16.30;;;;;;;;;;6153764;23;20924;-88
2023/12/06 09:03:59;;;;;;;17.90;14.47;;;;;;;;;;6154042;23;20425;-88
2023/12/06 09:06:52;;;;;;;17.97;14.00;;;;;;;;;;6133058;23;20447;-87
2023/12/06 09:09:41;;;;;;;23.13;16.00;;;;;;;;;;6151671;23;20414;-88
2023/12/06 09:15:36;;;;;;;19.37;14.47;;;;;;;;;;6021055;23;20407;-87
2023/12/06 09:18:28;;;;;;;21.20;14.70;;;;;;;;;;5922874;24;20936;-87
2023/12/06 09:21:09;;;;;;;19.80;14.20;;;;;;;;;;5925898;24;20463;-88
2023/12/06 09:23:48;;;;;;;20.80;14.23;;;;;;;;;;5904822;24;20484;-88
2023/12/06 09:26:27;;;;;;;24.93;15.87;;;;;;;;;;5902811;24;20477;-88
2023/12/06 09:29:02;;;;;;;19.33;13.43;;;;;;;;;;5906133;24;20417;-86
2023/12/06 09:31:42;;;;;;;17.67;13.50;;;;;;;;;;5902620;24;20441;-86
2023/12/06 09:34:12;;;;;;;16.90;14.10;;;;;;;;;;5982584;23;20481;-88
2023/12/06 09:37:00;;;;;;;22.60;13.07;;;;;;;;;;6034887;23;20930;-85
2023/12/06 09:39:32;;;;;;;15.33;13.10;;;;;;;;;;6034917;23;20454;-89
2023/12/06 09:42:08;;;;;;;16.70;13.63;;;;;;;;;;6034152;23;20858;-90
2023/12/06 09:44:46;;;;;;;17.17;13.90;;;;;;;;;;6034811;23;20439;-87
2023/12/06 09:47:27;;;;;;;18.40;13.50;;;;;;;;;;6034076;23;21069;-88
2023/12/06 09:50:10;;;;;;;19.50;12.90;;;;;;;;;;6035001;23;20435;-88
2023/12/06 09:52:42;;;;;;;16.67;13.77;;;;;;;;;;6035097;23;21091;-87
2023/12/06 09:55:12;;;;;;;19.70;13.50;;;;;;;;;;6073755;23;20469;-85
2023/12/06 09:57:41;;;;;;;15.40;13.30;;;;;;;;;;6152745;23;20410;-87
2023/12/06 10:00:18;;;;;;;19.97;13.40;;;;;;;;;;6154575;23;21005;-86
2023/12/06 10:02:58;;;;;;;18.70;13.97;;;;;;;;;;6155390;23;20418;-89
2023/12/06 10:05:29;;;;;;;17.63;12.90;;;;;;;;;;6156555;23;20510;-89
2023/12/06 10:08:13;;;;;;;20.80;14.50;;;;;;;;;;6151786;23;20438;-89
2023/12/06 10:10:43;;;;;;;18.20;13.23;;;;;;;;;;6157902;23;20498;-88
2023/12/06 10:13:14;;;;;;;18.63;13.40;;;;;;;;;;6156740;23;20453;-87
2023/12/06 10:15:46;;;;;;;16.40;12.20;;;;;;;;;;6162195;23;20482;-89
2023/12/06 10:18:24;;;;;;;15.87;13.40;;;;;;;;;;6171577;23;20455;-88
2023/12/06 10:21:06;;;;;;;18.20;13.50;;;;;;;;;;6170279;23;20415;-87
2023/12/06 10:23:44;;;;;;;18.47;13.13;;;;;;;;;;6172552;23;20562;-88
2023/12/06 10:26:15;;;;;;;17.27;13.57;;;;;;;;;;6161942;23;20420;-88
2023/12/06 10:28:53;;;;;;;17.10;13.57;;;;;;;;;;6171907;23;20439;-86
2023/12/06 10:31:27;;;;;;;20.00;14.03;;;;;;;;;;6172426;23;20461;-88
2023/12/06 10:33:57;;;;;;;19.50;13.53;;;;;;;;;;6170939;23;20445;-87
2023/12/06 10:36:42;;;;;;;17.27;13.10;;;;;;;;;;6156033;23;20457;-88
2023/12/06 10:39:29;;;;;;;16.37;13.27;;;;;;;;;;6167840;23;20649;-87
2023/12/06 10:42:03;;;;;;;24.23;15.23;;;;;;;;;;6169289;23;20410;-88
2023/12/06 10:44:43;;;;;;;18.40;15.70;;;;;;;;;;6169497;23;20505;-86
2023/12/06 10:47:15;;;;;;;19.43;13.53;;;;;;;;;;6166360;23;20447;-88
2023/12/06 10:49:57;;;;;;;16.00;13.07;;;;;;;;;;6169633;23;20453;-87
2023/12/06 10:52:29;;;;;;;16.00;12.33;;;;;;;;;;6167733;23;20415;-87
2023/12/06 10:55:08;;;;;;;14.77;11.90;;;;;;;;;;6155856;23;20490;-85
2023/12/06 10:57:42;;;;;;;18.07;12.47;;;;;;;;;;6161492;23;20491;-88
2023/12/06 11:00:31;;;;;;;14.80;11.73;;;;;;;;;;6161808;23;20430;-85
2023/12/06 11:03:04;;;;;;;17.17;12.10;;;;;;;;;;6169832;23;20486;-88
2023/12/06 11:05:42;;;;;;;13.50;11.07;;;;;;;;;;6172720;23;20395;-87
2023/12/06 11:08:28;;;;;;;16.60;12.90;;;;;;;;;;6172781;23;20449;-87
2023/12/06 11:11:15;;;;;;;18.20;12.27;;;;;;;;;;6174229;23;20438;-87
2023/12/06 11:14:17;;;;;;;14.60;12.83;;;;;;;;;;6165354;23;20422;-86
2023/12/06 11:17:01;;;;;;;19.30;12.67;;;;;;;;;;6161211;23;20414;-87
2023/12/06 11:19:37;;;;;;;15.33;11.67;;;;;;;;;;6155570;23;20419;-87
2023/12/06 11:22:22;;;;;;;20.10;12.83;;;;;;;;;;6098135;23;20523;-86
2023/12/06 11:25:14;;;;;;;17.00;13.67;;;;;;;;;;6093743;23;20424;-86
2023/12/06 11:27:52;;;;;;;16.00;13.13;;;;;;;;;;6094691;23;20448;-85
2023/12/06 11:30:24;;;;;;;18.20;15.20;;;;;;;;;;6092825;23;20433;-88
2023/12/06 11:33:12;;;;;;;20.60;13.20;;;;;;;;;;6086920;23;20408;-87
2023/12/06 11:35:55;;;;;;;19.83;14.30;;;;;;;;;;6097432;23;20511;-88
2023/12/06 11:38:39;;;;;;;16.60;12.60;;;;;;;;;;6093537;23;20404;-86
2023/12/06 11:41:16;;;;;;;16.23;14.17;;;;;;;;;;6092636;23;20484;-86
2023/12/06 11:43:49;;;;;;;28.43;21.00;;;;;;;;;;6095217;23;20401;-88
2023/12/06 11:46:17;;;;;;;18.73;14.80;;;;;;;;;;6094846;23;20452;-86
2023/12/06 11:48:47;;;;;;;17.60;12.30;;;;;;;;;;6095800;23;20444;-86
2023/12/06 11:51:19;;;;;;;21.17;14.70;;;;;;;;;;6113668;23;20431;-88
2023/12/06 11:54:00;;;;;;;19.47;14.00;;;;;;;;;;6159967;23;20415;-89
2023/12/06 11:56:32;;;;;;;18.07;14.53;;;;;;;;;;6158734;23;20410;-87
2023/12/06 11:59:02;;;;;;;16.73;13.00;;;;;;;;;;6152392;23;20521;-87
2023/12/06 12:01:32;;;;;;;18.23;13.40;;;;;;;;;;6150322;23;20442;-86
2023/12/06 12:04:02;;;;;;;16.53;13.00;;;;;;;;;;6151116;23;20419;-86
2023/12/06 12:06:30;;;;;;;19.20;12.57;;;;;;;;;;6150065;23;20514;-87
2023/12/06 12:08:58;;;;;;;18.20;13.10;;;;;;;;;;6149992;23;20509;-86
2023/12/06 12:11:34;;;;;;;17.63;13.10;;;;;;;;;;6150398;23;20445;-87
2023/12/06 12:14:06;;;;;;;16.30;12.53;;;;;;;;;;6150888;23;20997;-85
2023/12/06 12:16:37;;;;;;;17.77;13.23;;;;;;;;;;6151306;23;20410;-86
2023/12/06 12:19:08;;;;;;;18.60;12.97;;;;;;;;;;6158066;23;20418;-83
2023/12/06 12:21:36;;;;;;;15.33;12.53;;;;;;;;;;6162589;23;20476;-87
2023/12/06 12:24:03;;;;;;;16.77;13.33;;;;;;;;;;6163889;23;20460;-87
2023/12/06 12:26:39;;;;;;;17.50;11.10;;;;;;;;;;6169246;23;20402;-86
2023/12/06 12:29:15;;;;;;;16.63;11.23;;;;;;;;;;6171633;23;20477;-89
2023/12/06 12:32:11;;;;;;;20.63;12.20;;;;;;;;;;6152928;23;20505;-90
2023/12/06 12:35:16;;;;;;;14.30;11.63;;;;;;;;;;6137830;23;20382;-89
2023/12/06 12:42:05;;;;;;;16.20;12.17;;;;;;;;;;6162525;23;20502;-90
2023/12/06 12:48:25;;;;;;;14.87;10.97;;;;;;;;;;6017758;23;20466;-87
2023/12/06 12:51:18;;;;;;;18.77;11.37;;;;;;;;;;6016023;23;20439;-89
2023/12/06 12:53:52;;;;;;;16.17;11.87;;;;;;;;;;6004317;23;20442;-90
2023/12/06 12:56:25;;;;;;;14.00;10.90;;;;;;;;;;6033679;23;20426;-88
2023/12/06 12:58:55;;;;;;;14.13;10.57;;;;;;;;;;6042047;23;20454;-87
2023/12/06 13:01:25;;;;;;;16.73;11.00;;;;;;;;;;6054026;23;20461;-88
2023/12/06 13:04:01;;;;;;;16.90;10.70;;;;;;;;;;6022341;23;20442;-90
2023/12/06 13:06:37;;;;;;;12.77;10.50;;;;;;;;;;6018839;23;20426;-89
2023/12/06 13:09:17;;;;;;;14.47;10.17;;;;;;;;;;6020429;23;20478;-89
2023/12/06 13:11:50;;;;;;;13.43;11.20;;;;;;;;;;6019061;23;20463;-87
2023/12/06 13:14:28;;;;;;;15.37;11.70;;;;;;;;;;6020064;23;20481;-88
2023/12/06 13:17:05;;;;;;;15.30;11.20;;;;;;;;;;6020846;23;20418;-88
2023/12/06 13:19:37;;;;;;;15.00;10.27;;;;;;;;;;5999655;23;20482;-87
2023/12/06 13:22:08;;;;;;;14.13;10.50;;;;;;;;;;6084616;23;20414;-87
2023/12/06 13:24:43;;;;;;;15.77;11.17;;;;;;;;;;6140228;23;20418;-89
2023/12/06 13:27:15;;;;;;;14.37;10.60;;;;;;;;;;6141242;23;20414;-89
2023/12/06 13:29:52;;;;;;;15.30;10.43;;;;;;;;;;6141173;23;20437;-88
2023/12/06 13:32:24;;;;;;;17.30;11.50;;;;;;;;;;6153360;23;20492;-88
2023/12/06 13:35:11;;;;;;;14.53;10.23;;;;;;;;;;6180261;23;20409;-88
2023/12/06 13:52:15;;;;;;;18.27;10.20;;;;;;;;;;6186444;23;20468;-88
2023/12/06 13:55:09;;;;;;;10.90;8.50;;;;;;;;;;6035069;23;20404;-87
2023/12/06 13:58:03;;;;;;;15.30;9.63;;;;;;;;;;6105012;23;20413;-89
2023/12/06 14:04:05;;;;;;;;;;;;;;;;;;;;;
2023/12/06 14:18:03;;;;;;;9.97;8.83;;;;;;;;;;6195641;23;20430;-86
2023/12/06 14:20:36;;;;;;;9.20;7.50;;;;;;;;;;6170479;23;20432;-87
2023/12/06 14:23:17;;;;;;;12.57;8.73;;;;;;;;;;6193672;23;20405;-88
2023/12/06 14:26:06;;;;;;;12.43;8.10;;;;;;;;;;6197204;23;20402;-88
2023/12/06 14:28:54;;;;;;;11.67;8.00;;;;;;;;;;6196815;23;20844;-88
2023/12/06 14:31:37;;;;;;;11.20;7.87;;;;;;;;;;6194787;23;20442;-86
2023/12/06 14:34:12;;;;;;;11.47;7.83;;;;;;;;;;6194521;23;20414;-89
2023/12/06 14:37:15;;;;;;;11.73;8.33;;;;;;;;;;6196113;23;20390;-88
2023/12/06 14:40:04;;;;;;;12.90;8.00;;;;;;;;;;6191931;23;20501;-88
2023/12/06 14:46:11;;;;;;;9.50;7.97;;;;;;;;;;6196011;23;20782;-88
2023/12/06 14:49:31;;;;;;;12.37;8.90;;;;;;;;;;6173121;23;20442;-86
2023/12/06 14:52:04;;;;;;;11.20;7.00;;;;;;;;;;6056161;23;20397;-88
2023/12/06 14:54:33;;;;;;;10.10;8.13;;;;;;;;;;6163115;23;20460;-86
2023/12/06 14:57:05;;;;;;;12.00;8.57;;;;;;;;;;6201731;23;20418;-87
2023/12/06 14:59:38;;;;;;;9.23;7.67;;;;;;;;;;6197635;23;20485;-87
2023/12/06 15:02:13;;;;;;;12.93;7.93;;;;;;;;;;6196565;23;20417;-87
2023/12/06 15:04:43;;;;;;;12.67;7.60;;;;;;;;;;6204264;23;20432;-88
2023/12/06 15:07:17;;;;;;;14.90;8.30;;;;;;;;;;6203860;23;20387;-86
2023/12/06 15:09:57;;;;;;;14.30;8.40;;;;;;;;;;6201847;23;20496;-87
2023/12/06 15:12:37;;;;;;;10.80;8.33;;;;;;;;;;6204977;23;20464;-88
2023/12/06 15:15:21;;;;;;;;;;;;;;;;;;;;;
2023/12/06 15:17:52;;;;;;;12.33;7.27;;;;;;;;;;6200290;23;20480;-88
2023/12/06 15:20:24;;;;;;;13.23;8.50;;;;;;;;;;6197887;23;20440;-90
2023/12/06 15:22:57;;;;;;;13.00;8.93;;;;;;;;;;6195613;23;20405;-87
2023/12/06 15:25:34;;;;;;;12.27;9.30;;;;;;;;;;6195283;23;20470;-87
2023/12/06 15:28:10;;;;;;;12.07;8.37;;;;;;;;;;6192599;23;20469;-89
2023/12/06 15:30:47;;;;;;;10.70;7.23;;;;;;;;;;6196072;23;20436;-88
2023/12/06 15:33:19;;;;;;;11.20;8.23;;;;;;;;;;6172268;23;20527;-87
2023/12/06 15:35:57;;;;;;;10.33;7.30;;;;;;;;;;6195894;23;20478;-87
2023/12/06 15:38:42;;;;;;;13.63;8.03;;;;;;;;;;6196814;23;20410;-89
2023/12/06 15:41:20;;;;;;;10.90;7.27;;;;;;;;;;6200870;23;20433;-88
2023/12/06 15:44:30;;;;;;;12.23;7.77;;;;;;;;;;6173957;23;20402;-88
2023/12/06 15:47:01;;;;;;;9.47;6.73;;;;;;;;;;6171092;23;20787;-88
2023/12/06 15:49:39;;;;;;;9.80;6.40;;;;;;;;;;6206177;23;20441;-86
2023/12/06 15:52:16;;;;;;;9.70;6.40;;;;;;;;;;6208389;23;20394;-89
2023/12/06 15:55:00;;;;;;;10.80;6.90;;;;;;;;;;6201377;23;20409;-87
2023/12/06 15:57:42;;;;;;;12.37;6.67;;;;;;;;;;6160744;23;20421;-90
2023/12/06 16:00:39;;;;;;;11.43;6.90;;;;;;;;;;6109915;23;20460;-88
2023/12/06 16:03:08;;;;;;;10.40;6.90;;;;;;;;;;6085182;23;20432;-88
2023/12/06 16:06:01;;;;;;;8.23;5.73;;;;;;;;;;6085247;23;20424;-88
2023/12/06 16:08:40;;;;;;;11.37;6.43;;;;;;;;;;6043711;23;20440;-89
2023/12/06 16:11:10;;;;;;;9.50;6.60;;;;;;;;;;6080150;23;20437;-88
2023/12/06 16:13:42;;;;;;;8.90;6.00;;;;;;;;;;6054532;23;20424;-88
2023/12/06 16:16:12;;;;;;;11.00;6.60;;;;;;;;;;6081874;23;20476;-87
2023/12/06 16:18:51;;;;;;;10.77;7.40;;;;;;;;;;6093475;23;20488;-89
2023/12/06 16:21:20;;;;;;;8.20;7.07;;;;;;;;;;6094595;23;20416;-88